sensor_id;sensor_type;location;lat;lon;timestamp;P1;durP1;ratioP1;P2;durP2;ratioP2
20294;SDS011;10306;52.128;5.208;2023-05-20T00:01:27;4.80;;;3.40;;
20294;SDS011;10306;52.128;5.208;2023-05-20T00:03:53;3.73;;;3.43;;
20294;SDS011;10306;52.128;5.208;2023-05-20T00:06:19;3.60;;;3.33;;
20294;SDS011;10306;52.128;5.208;2023-05-20T00:08:45;6.17;;;3.50;;
20294;SDS011;10306;52.128;5.208;2023-05-20T00:11:11;8.73;;;3.97;;
20294;SDS011;10306;52.128;5.208;2023-05-20T00:13:37;3.30;;;3.00;;
20294;SDS011;10306;52.128;5.208;2023-05-20T00:16:03;5.17;;;3.40;;
20294;SDS011;10306;52.128;5.208;2023-05-20T00:18:29;3.83;;;3.43;;
20294;SDS011;10306;52.128;5.208;2023-05-20T00:20:56;4.10;;;3.33;;
20294;SDS011;10306;52.128;5.208;2023-05-20T00:23:22;4.73;;;3.17;;
20294;SDS011;10306;52.128;5.208;2023-05-20T00:25:48;6.33;;;3.50;;
20294;SDS011;10306;52.128;5.208;2023-05-20T00:28:15;3.87;;;3.47;;
20294;SDS011;10306;52.128;5.208;2023-05-20T00:30:41;5.10;;;3.47;;
20294;SDS011;10306;52.128;5.208;2023-05-20T00:33:07;3.50;;;3.20;;
20294;SDS011;10306;52.128;5.208;2023-05-20T00:35:33;11.37;;;3.47;;
20294;SDS011;10306;52.128;5.208;2023-05-20T00:37:59;5.97;;;3.60;;
20294;SDS011;10306;52.128;5.208;2023-05-20T00:40:25;6.23;;;3.30;;
20294;SDS011;10306;52.128;5.208;2023-05-20T00:42:51;4.90;;;3.27;;
20294;SDS011;10306;52.128;5.208;2023-05-20T00:45:17;6.33;;;4.00;;
20294;SDS011;10306;52.128;5.208;2023-05-20T00:47:43;6.03;;;3.43;;
20294;SDS011;10306;52.128;5.208;2023-05-20T00:50:09;6.50;;;3.50;;
20294;SDS011;10306;52.128;5.208;2023-05-20T00:52:36;3.93;;;3.50;;
20294;SDS011;10306;52.128;5.208;2023-05-20T00:55:02;7.73;;;3.77;;
20294;SDS011;10306;52.128;5.208;2023-05-20T00:57:28;4.50;;;3.60;;
20294;SDS011;10306;52.128;5.208;2023-05-20T00:59:54;6.87;;;4.30;;
20294;SDS011;10306;52.128;5.208;2023-05-20T01:02:20;7.07;;;3.63;;
20294;SDS011;10306;52.128;5.208;2023-05-20T01:04:46;5.70;;;3.80;;
20294;SDS011;10306;52.128;5.208;2023-05-20T01:07:14;3.87;;;3.57;;
20294;SDS011;10306;52.128;5.208;2023-05-20T01:09:40;4.57;;;3.97;;
20294;SDS011;10306;52.128;5.208;2023-05-20T01:15:05;5.37;;;3.83;;
20294;SDS011;10306;52.128;5.208;2023-05-20T01:17:31;4.70;;;3.80;;
20294;SDS011;10306;52.128;5.208;2023-05-20T01:20:01;4.63;;;3.50;;
20294;SDS011;10306;52.128;5.208;2023-05-20T01:22:29;6.13;;;4.00;;
20294;SDS011;10306;52.128;5.208;2023-05-20T01:24:55;4.53;;;3.80;;
20294;SDS011;10306;52.128;5.208;2023-05-20T01:27:21;3.80;;;3.30;;
20294;SDS011;10306;52.128;5.208;2023-05-20T01:29:48;4.13;;;3.70;;
20294;SDS011;10306;52.128;5.208;2023-05-20T01:32:18;4.10;;;3.70;;
20294;SDS011;10306;52.128;5.208;2023-05-20T01:34:45;4.17;;;3.83;;
20294;SDS011;10306;52.128;5.208;2023-05-20T01:37:12;6.63;;;4.10;;
20294;SDS011;10306;52.128;5.208;2023-05-20T01:39:38;4.00;;;3.80;;
20294;SDS011;10306;52.128;5.208;2023-05-20T01:42:07;4.50;;;4.17;;
20294;SDS011;10306;52.128;5.208;2023-05-20T01:44:35;7.17;;;4.13;;
20294;SDS011;10306;52.128;5.208;2023-05-20T01:47:01;8.63;;;4.10;;
20294;SDS011;10306;52.128;5.208;2023-05-20T01:49:28;7.43;;;4.30;;
20294;SDS011;10306;52.128;5.208;2023-05-20T01:51:54;4.63;;;4.23;;
20294;SDS011;10306;52.128;5.208;2023-05-20T01:54:20;5.03;;;4.00;;
20294;SDS011;10306;52.128;5.208;2023-05-20T01:56:46;5.03;;;4.27;;
20294;SDS011;10306;52.128;5.208;2023-05-20T01:59:12;8.43;;;5.13;;
20294;SDS011;10306;52.128;5.208;2023-05-20T02:01:38;6.97;;;4.07;;
20294;SDS011;10306;52.128;5.208;2023-05-20T02:04:04;4.33;;;4.03;;
20294;SDS011;10306;52.128;5.208;2023-05-20T02:06:30;4.50;;;4.10;;
20294;SDS011;10306;52.128;5.208;2023-05-20T02:08:56;5.67;;;4.67;;
20294;SDS011;10306;52.128;5.208;2023-05-20T02:11:22;5.30;;;4.37;;
20294;SDS011;10306;52.128;5.208;2023-05-20T02:13:48;4.77;;;4.07;;
20294;SDS011;10306;52.128;5.208;2023-05-20T02:16:14;4.23;;;3.93;;
20294;SDS011;10306;52.128;5.208;2023-05-20T02:18:40;5.80;;;4.00;;
20294;SDS011;10306;52.128;5.208;2023-05-20T02:21:06;5.03;;;4.07;;
20294;SDS011;10306;52.128;5.208;2023-05-20T02:23:33;5.83;;;4.30;;
20294;SDS011;10306;52.128;5.208;2023-05-20T02:25:59;5.87;;;4.07;;
20294;SDS011;10306;52.128;5.208;2023-05-20T02:28:25;4.30;;;3.53;;
20294;SDS011;10306;52.128;5.208;2023-05-20T02:30:51;4.77;;;4.37;;
20294;SDS011;10306;52.128;5.208;2023-05-20T02:33:20;6.73;;;4.20;;
20294;SDS011;10306;52.128;5.208;2023-05-20T02:35:46;4.43;;;4.13;;
20294;SDS011;10306;52.128;5.208;2023-05-20T02:38:12;6.13;;;4.93;;
20294;SDS011;10306;52.128;5.208;2023-05-20T02:40:38;4.27;;;3.90;;
20294;SDS011;10306;52.128;5.208;2023-05-20T02:43:04;4.43;;;4.10;;
20294;SDS011;10306;52.128;5.208;2023-05-20T02:45:30;6.10;;;4.40;;
20294;SDS011;10306;52.128;5.208;2023-05-20T02:47:56;4.77;;;4.27;;
20294;SDS011;10306;52.128;5.208;2023-05-20T02:50:22;7.37;;;4.80;;
20294;SDS011;10306;52.128;5.208;2023-05-20T02:52:48;4.57;;;4.17;;
20294;SDS011;10306;52.128;5.208;2023-05-20T02:55:14;4.30;;;3.90;;
20294;SDS011;10306;52.128;5.208;2023-05-20T02:57:40;5.00;;;4.30;;
20294;SDS011;10306;52.128;5.208;2023-05-20T03:00:06;6.63;;;4.50;;
20294;SDS011;10306;52.128;5.208;2023-05-20T03:02:37;4.27;;;3.87;;
20294;SDS011;10306;52.128;5.208;2023-05-20T03:05:03;6.03;;;4.50;;
20294;SDS011;10306;52.128;5.208;2023-05-20T03:07:29;6.53;;;4.37;;
20294;SDS011;10306;52.128;5.208;2023-05-20T03:09:55;9.40;;;4.20;;
20294;SDS011;10306;52.128;5.208;2023-05-20T03:12:23;7.10;;;4.67;;
20294;SDS011;10306;52.128;5.208;2023-05-20T03:14:50;5.30;;;3.87;;
20294;SDS011;10306;52.128;5.208;2023-05-20T03:17:19;7.53;;;4.47;;
20294;SDS011;10306;52.128;5.208;2023-05-20T03:19:45;4.67;;;4.13;;
20294;SDS011;10306;52.128;5.208;2023-05-20T03:22:11;6.00;;;4.20;;
20294;SDS011;10306;52.128;5.208;2023-05-20T03:24:37;7.50;;;4.33;;
20294;SDS011;10306;52.128;5.208;2023-05-20T03:27:04;4.57;;;4.20;;
20294;SDS011;10306;52.128;5.208;2023-05-20T03:29:30;4.93;;;4.43;;
20294;SDS011;10306;52.128;5.208;2023-05-20T03:31:57;5.00;;;4.40;;
20294;SDS011;10306;52.128;5.208;2023-05-20T03:34:23;6.37;;;4.20;;
20294;SDS011;10306;52.128;5.208;2023-05-20T03:36:52;4.67;;;4.27;;
20294;SDS011;10306;52.128;5.208;2023-05-20T03:39:18;4.73;;;4.27;;
20294;SDS011;10306;52.128;5.208;2023-05-20T03:41:44;5.10;;;4.10;;
20294;SDS011;10306;52.128;5.208;2023-05-20T03:44:10;8.30;;;3.83;;
20294;SDS011;10306;52.128;5.208;2023-05-20T03:46:36;4.70;;;3.90;;
20294;SDS011;10306;52.128;5.208;2023-05-20T03:49:02;6.67;;;4.50;;
20294;SDS011;10306;52.128;5.208;2023-05-20T03:51:28;7.10;;;4.70;;
20294;SDS011;10306;52.128;5.208;2023-05-20T03:53:54;6.07;;;4.50;;
20294;SDS011;10306;52.128;5.208;2023-05-20T03:56:21;4.77;;;4.37;;
20294;SDS011;10306;52.128;5.208;2023-05-20T03:58:47;4.80;;;4.37;;
20294;SDS011;10306;52.128;5.208;2023-05-20T04:01:13;4.50;;;4.13;;
20294;SDS011;10306;52.128;5.208;2023-05-20T04:03:39;5.90;;;4.27;;
20294;SDS011;10306;52.128;5.208;2023-05-20T04:06:08;6.03;;;4.50;;
20294;SDS011;10306;52.128;5.208;2023-05-20T04:08:34;5.30;;;4.27;;
20294;SDS011;10306;52.128;5.208;2023-05-20T04:11:01;6.57;;;4.97;;
20294;SDS011;10306;52.128;5.208;2023-05-20T04:13:27;4.80;;;4.30;;
20294;SDS011;10306;52.128;5.208;2023-05-20T04:15:53;4.60;;;4.20;;
20294;SDS011;10306;52.128;5.208;2023-05-20T04:18:19;4.47;;;3.97;;
20294;SDS011;10306;52.128;5.208;2023-05-20T04:20:45;8.83;;;5.20;;
20294;SDS011;10306;52.128;5.208;2023-05-20T04:23:11;6.93;;;4.70;;
20294;SDS011;10306;52.128;5.208;2023-05-20T04:25:37;7.13;;;4.50;;
20294;SDS011;10306;52.128;5.208;2023-05-20T04:28:05;5.33;;;4.40;;
20294;SDS011;10306;52.128;5.208;2023-05-20T04:30:31;6.57;;;4.17;;
20294;SDS011;10306;52.128;5.208;2023-05-20T04:32:57;5.70;;;4.33;;
20294;SDS011;10306;52.128;5.208;2023-05-20T04:35:26;5.13;;;4.73;;
20294;SDS011;10306;52.128;5.208;2023-05-20T04:37:53;5.67;;;5.13;;
20294;SDS011;10306;52.128;5.208;2023-05-20T04:40:19;5.00;;;4.60;;
20294;SDS011;10306;52.128;5.208;2023-05-20T04:42:45;6.17;;;4.37;;
20294;SDS011;10306;52.128;5.208;2023-05-20T04:45:11;5.33;;;4.63;;
20294;SDS011;10306;52.128;5.208;2023-05-20T04:47:37;5.70;;;4.37;;
20294;SDS011;10306;52.128;5.208;2023-05-20T04:50:07;5.10;;;4.50;;
20294;SDS011;10306;52.128;5.208;2023-05-20T04:52:38;6.37;;;4.50;;
20294;SDS011;10306;52.128;5.208;2023-05-20T04:55:06;9.20;;;4.53;;
20294;SDS011;10306;52.128;5.208;2023-05-20T04:57:34;5.17;;;4.30;;
20294;SDS011;10306;52.128;5.208;2023-05-20T05:00:02;4.50;;;4.10;;
20294;SDS011;10306;52.128;5.208;2023-05-20T05:02:31;7.37;;;4.43;;
20294;SDS011;10306;52.128;5.208;2023-05-20T05:04:57;4.80;;;4.40;;
20294;SDS011;10306;52.128;5.208;2023-05-20T05:07:23;8.13;;;4.93;;
20294;SDS011;10306;52.128;5.208;2023-05-20T05:09:49;5.03;;;4.57;;
20294;SDS011;10306;52.128;5.208;2023-05-20T05:12:15;4.97;;;4.57;;
20294;SDS011;10306;52.128;5.208;2023-05-20T05:14:41;4.40;;;4.13;;
20294;SDS011;10306;52.128;5.208;2023-05-20T05:17:07;4.53;;;4.00;;
20294;SDS011;10306;52.128;5.208;2023-05-20T05:19:33;4.47;;;3.77;;
20294;SDS011;10306;52.128;5.208;2023-05-20T05:21:58;4.37;;;3.83;;
20294;SDS011;10306;52.128;5.208;2023-05-20T05:24:25;7.50;;;4.30;;
20294;SDS011;10306;52.128;5.208;2023-05-20T05:26:54;6.60;;;4.53;;
20294;SDS011;10306;52.128;5.208;2023-05-20T05:29:20;4.73;;;4.33;;
20294;SDS011;10306;52.128;5.208;2023-05-20T05:31:46;4.53;;;4.13;;
20294;SDS011;10306;52.128;5.208;2023-05-20T05:34:12;4.87;;;4.43;;
20294;SDS011;10306;52.128;5.208;2023-05-20T05:36:38;6.53;;;4.07;;
20294;SDS011;10306;52.128;5.208;2023-05-20T05:39:04;8.10;;;4.33;;
20294;SDS011;10306;52.128;5.208;2023-05-20T05:41:31;4.50;;;4.10;;
20294;SDS011;10306;52.128;5.208;2023-05-20T05:43:57;5.50;;;3.70;;
20294;SDS011;10306;52.128;5.208;2023-05-20T05:46:23;4.60;;;4.13;;
20294;SDS011;10306;52.128;5.208;2023-05-20T05:48:49;4.50;;;4.10;;
20294;SDS011;10306;52.128;5.208;2023-05-20T05:51:16;4.80;;;4.07;;
20294;SDS011;10306;52.128;5.208;2023-05-20T05:53:42;4.47;;;4.07;;
20294;SDS011;10306;52.128;5.208;2023-05-20T05:56:08;4.40;;;4.10;;
20294;SDS011;10306;52.128;5.208;2023-05-20T05:58:34;4.10;;;3.70;;
20294;SDS011;10306;52.128;5.208;2023-05-20T06:01:00;3.83;;;3.50;;
20294;SDS011;10306;52.128;5.208;2023-05-20T06:03:26;9.17;;;4.30;;
20294;SDS011;10306;52.128;5.208;2023-05-20T06:05:53;4.13;;;3.67;;
20294;SDS011;10306;52.128;5.208;2023-05-20T06:08:19;4.33;;;3.93;;
20294;SDS011;10306;52.128;5.208;2023-05-20T06:10:46;5.07;;;4.00;;
20294;SDS011;10306;52.128;5.208;2023-05-20T06:13:12;4.20;;;3.80;;
20294;SDS011;10306;52.128;5.208;2023-05-20T06:15:39;4.23;;;3.87;;
20294;SDS011;10306;52.128;5.208;2023-05-20T06:18:05;4.27;;;3.90;;
20294;SDS011;10306;52.128;5.208;2023-05-20T06:20:31;3.93;;;3.63;;
20294;SDS011;10306;52.128;5.208;2023-05-20T06:22:57;5.63;;;3.40;;
20294;SDS011;10306;52.128;5.208;2023-05-20T06:25:23;3.97;;;3.70;;
20294;SDS011;10306;52.128;5.208;2023-05-20T06:27:49;5.27;;;3.43;;
20294;SDS011;10306;52.128;5.208;2023-05-20T06:30:15;4.60;;;3.40;;
20294;SDS011;10306;52.128;5.208;2023-05-20T06:32:41;5.43;;;4.07;;
20294;SDS011;10306;52.128;5.208;2023-05-20T06:35:07;7.63;;;3.93;;
20294;SDS011;10306;52.128;5.208;2023-05-20T06:37:34;3.90;;;3.60;;
20294;SDS011;10306;52.128;5.208;2023-05-20T06:40:00;4.23;;;3.70;;
20294;SDS011;10306;52.128;5.208;2023-05-20T06:42:26;4.20;;;3.80;;
20294;SDS011;10306;52.128;5.208;2023-05-20T06:44:51;3.73;;;3.47;;
20294;SDS011;10306;52.128;5.208;2023-05-20T06:47:17;4.17;;;3.80;;
20294;SDS011;10306;52.128;5.208;2023-05-20T06:49:44;7.13;;;3.60;;
20294;SDS011;10306;52.128;5.208;2023-05-20T06:52:10;4.57;;;3.43;;
20294;SDS011;10306;52.128;5.208;2023-05-20T06:54:38;5.07;;;3.57;;
20294;SDS011;10306;52.128;5.208;2023-05-20T06:57:08;7.03;;;3.60;;
20294;SDS011;10306;52.128;5.208;2023-05-20T06:59:35;5.23;;;3.70;;
20294;SDS011;10306;52.128;5.208;2023-05-20T07:02:01;6.30;;;4.00;;
20294;SDS011;10306;52.128;5.208;2023-05-20T07:04:27;6.10;;;3.57;;
20294;SDS011;10306;52.128;5.208;2023-05-20T07:06:53;6.43;;;3.73;;
20294;SDS011;10306;52.128;5.208;2023-05-20T07:09:19;4.33;;;3.90;;
20294;SDS011;10306;52.128;5.208;2023-05-20T07:11:45;4.80;;;4.13;;
20294;SDS011;10306;52.128;5.208;2023-05-20T07:14:11;4.03;;;3.63;;
20294;SDS011;10306;52.128;5.208;2023-05-20T07:16:37;4.23;;;3.37;;
20294;SDS011;10306;52.128;5.208;2023-05-20T07:19:03;4.37;;;3.60;;
20294;SDS011;10306;52.128;5.208;2023-05-20T07:21:29;3.93;;;3.73;;
20294;SDS011;10306;52.128;5.208;2023-05-20T07:23:55;5.17;;;3.60;;
20294;SDS011;10306;52.128;5.208;2023-05-20T07:26:21;3.57;;;3.27;;
20294;SDS011;10306;52.128;5.208;2023-05-20T07:28:47;3.47;;;3.27;;
20294;SDS011;10306;52.128;5.208;2023-05-20T07:31:13;3.30;;;3.10;;
20294;SDS011;10306;52.128;5.208;2023-05-20T07:33:39;4.67;;;3.10;;
20294;SDS011;10306;52.128;5.208;2023-05-20T07:36:05;3.53;;;3.07;;
20294;SDS011;10306;52.128;5.208;2023-05-20T07:38:31;3.87;;;3.47;;
20294;SDS011;10306;52.128;5.208;2023-05-20T07:40:57;3.50;;;3.20;;
20294;SDS011;10306;52.128;5.208;2023-05-20T07:43:23;4.63;;;3.30;;
20294;SDS011;10306;52.128;5.208;2023-05-20T07:45:49;4.00;;;3.70;;
20294;SDS011;10306;52.128;5.208;2023-05-20T07:48:15;3.53;;;2.80;;
20294;SDS011;10306;52.128;5.208;2023-05-20T07:50:41;5.47;;;3.23;;
20294;SDS011;10306;52.128;5.208;2023-05-20T07:53:07;3.27;;;3.07;;
20294;SDS011;10306;52.128;5.208;2023-05-20T07:55:33;6.47;;;2.60;;
20294;SDS011;10306;52.128;5.208;2023-05-20T07:58:03;3.10;;;2.80;;
20294;SDS011;10306;52.128;5.208;2023-05-20T08:00:29;3.63;;;2.70;;
20294;SDS011;10306;52.128;5.208;2023-05-20T08:02:55;3.43;;;3.03;;
20294;SDS011;10306;52.128;5.208;2023-05-20T08:05:21;3.53;;;2.60;;
20294;SDS011;10306;52.128;5.208;2023-05-20T08:07:47;2.53;;;2.33;;
20294;SDS011;10306;52.128;5.208;2023-05-20T08:10:13;2.53;;;2.33;;
20294;SDS011;10306;52.128;5.208;2023-05-20T08:12:39;2.70;;;2.50;;
20294;SDS011;10306;52.128;5.208;2023-05-20T08:15:05;2.83;;;2.73;;
20294;SDS011;10306;52.128;5.208;2023-05-20T08:17:31;2.47;;;2.30;;
20294;SDS011;10306;52.128;5.208;2023-05-20T08:19:59;2.83;;;2.63;;
20294;SDS011;10306;52.128;5.208;2023-05-20T08:22:25;6.37;;;3.40;;
20294;SDS011;10306;52.128;5.208;2023-05-20T08:24:51;4.30;;;3.20;;
20294;SDS011;10306;52.128;5.208;2023-05-20T08:27:17;3.63;;;2.47;;
20294;SDS011;10306;52.128;5.208;2023-05-20T08:29:45;2.93;;;2.50;;
20294;SDS011;10306;52.128;5.208;2023-05-20T08:32:11;3.33;;;2.50;;
20294;SDS011;10306;52.128;5.208;2023-05-20T08:34:37;2.57;;;2.43;;
20294;SDS011;10306;52.128;5.208;2023-05-20T08:37:04;2.60;;;2.40;;
20294;SDS011;10306;52.128;5.208;2023-05-20T08:39:30;4.00;;;2.30;;
20294;SDS011;10306;52.128;5.208;2023-05-20T08:41:56;4.03;;;2.30;;
20294;SDS011;10306;52.128;5.208;2023-05-20T08:44:22;2.30;;;2.10;;
20294;SDS011;10306;52.128;5.208;2023-05-20T08:46:49;2.10;;;2.00;;
20294;SDS011;10306;52.128;5.208;2023-05-20T08:49:15;2.00;;;1.90;;
20294;SDS011;10306;52.128;5.208;2023-05-20T08:51:41;2.20;;;2.10;;
20294;SDS011;10306;52.128;5.208;2023-05-20T08:54:07;2.40;;;2.30;;
20294;SDS011;10306;52.128;5.208;2023-05-20T08:56:34;2.30;;;1.93;;
20294;SDS011;10306;52.128;5.208;2023-05-20T08:59:00;3.15;;;1.95;;
20294;SDS011;10306;52.128;5.208;2023-05-20T09:01:26;2.63;;;1.70;;
20294;SDS011;10306;52.128;5.208;2023-05-20T09:03:52;2.40;;;1.60;;
20294;SDS011;10306;52.128;5.208;2023-05-20T09:06:18;1.77;;;1.67;;
20294;SDS011;10306;52.128;5.208;2023-05-20T09:08:44;1.97;;;1.87;;
20294;SDS011;10306;52.128;5.208;2023-05-20T09:11:11;1.70;;;1.60;;
20294;SDS011;10306;52.128;5.208;2023-05-20T09:13:37;2.50;;;1.55;;
20294;SDS011;10306;52.128;5.208;2023-05-20T09:16:03;1.70;;;1.60;;
20294;SDS011;10306;52.128;5.208;2023-05-20T09:18:30;2.40;;;1.80;;
20294;SDS011;10306;52.128;5.208;2023-05-20T09:20:56;1.63;;;1.53;;
20294;SDS011;10306;52.128;5.208;2023-05-20T09:23:22;5.03;;;1.50;;
20294;SDS011;10306;52.128;5.208;2023-05-20T09:25:50;2.37;;;1.60;;
20294;SDS011;10306;52.128;5.208;2023-05-20T09:28:21;1.67;;;1.58;;
20294;SDS011;10306;52.128;5.208;2023-05-20T09:30:56;1.83;;;1.73;;
20294;SDS011;10306;52.128;5.208;2023-05-20T09:33:25;2.03;;;1.83;;
20294;SDS011;10306;52.128;5.208;2023-05-20T09:35:51;5.37;;;1.70;;
20294;SDS011;10306;52.128;5.208;2023-05-20T09:38:17;2.60;;;1.80;;
20294;SDS011;10306;52.128;5.208;2023-05-20T09:40:44;1.75;;;1.67;;
20294;SDS011;10306;52.128;5.208;2023-05-20T09:43:10;1.30;;;1.30;;
20294;SDS011;10306;52.128;5.208;2023-05-20T09:45:37;1.98;;;1.35;;
20294;SDS011;10306;52.128;5.208;2023-05-20T09:48:03;1.70;;;1.60;;
20294;SDS011;10306;52.128;5.208;2023-05-20T09:50:29;1.55;;;1.55;;
20294;SDS011;10306;52.128;5.208;2023-05-20T09:52:56;3.47;;;2.22;;
20294;SDS011;10306;52.128;5.208;2023-05-20T09:55:26;4.65;;;2.50;;
20294;SDS011;10306;52.128;5.208;2023-05-20T09:57:52;2.58;;;1.70;;
20294;SDS011;10306;52.128;5.208;2023-05-20T10:00:18;3.92;;;1.50;;
20294;SDS011;10306;52.128;5.208;2023-05-20T10:02:46;1.60;;;1.27;;
20294;SDS011;10306;52.128;5.208;2023-05-20T10:05:16;2.65;;;2.15;;
20294;SDS011;10306;52.128;5.208;2023-05-20T10:12:51;1.63;;;1.52;;
20294;SDS011;10306;52.128;5.208;2023-05-20T10:18:02;3.53;;;1.40;;
20294;SDS011;10306;52.128;5.208;2023-05-20T10:20:30;1.50;;;1.40;;
20294;SDS011;10306;52.128;5.208;2023-05-20T10:22:56;1.40;;;1.40;;
20294;SDS011;10306;52.128;5.208;2023-05-20T10:25:23;1.70;;;1.58;;
20294;SDS011;10306;52.128;5.208;2023-05-20T10:27:50;1.67;;;1.58;;
20294;SDS011;10306;52.128;5.208;2023-05-20T10:30:17;1.73;;;1.48;;
20294;SDS011;10306;52.128;5.208;2023-05-20T10:32:54;4.60;;;1.60;;
20294;SDS011;10306;52.128;5.208;2023-05-20T10:35:24;1.77;;;1.67;;
20294;SDS011;10306;52.128;5.208;2023-05-20T10:37:50;1.73;;;1.63;;
20294;SDS011;10306;52.128;5.208;2023-05-20T10:40:17;4.32;;;1.42;;
20294;SDS011;10306;52.128;5.208;2023-05-20T10:42:44;2.28;;;1.60;;
20294;SDS011;10306;52.128;5.208;2023-05-20T10:45:11;2.75;;;1.75;;
20294;SDS011;10306;52.128;5.208;2023-05-20T10:47:53;1.60;;;1.50;;
20294;SDS011;10306;52.128;5.208;2023-05-20T10:50:33;1.95;;;1.35;;
20294;SDS011;10306;52.128;5.208;2023-05-20T10:53:10;2.78;;;1.42;;
20294;SDS011;10306;52.128;5.208;2023-05-20T10:55:36;2.05;;;1.27;;
20294;SDS011;10306;52.128;5.208;2023-05-20T10:58:03;1.60;;;1.50;;
20294;SDS011;10306;52.128;5.208;2023-05-20T11:00:30;4.60;;;1.35;;
20294;SDS011;10306;52.128;5.208;2023-05-20T11:02:56;1.70;;;1.60;;
20294;SDS011;10306;52.128;5.208;2023-05-20T11:05:22;5.50;;;2.08;;
20294;SDS011;10306;52.128;5.208;2023-05-20T11:07:48;1.60;;;1.50;;
20294;SDS011;10306;52.128;5.208;2023-05-20T11:10:15;2.03;;;1.60;;
20294;SDS011;10306;52.128;5.208;2023-05-20T11:12:41;4.90;;;1.80;;
20294;SDS011;10306;52.128;5.208;2023-05-20T11:15:07;4.78;;;1.42;;
20294;SDS011;10306;52.128;5.208;2023-05-20T11:17:37;1.70;;;1.60;;
20294;SDS011;10306;52.128;5.208;2023-05-20T11:20:03;1.90;;;1.80;;
20294;SDS011;10306;52.128;5.208;2023-05-20T11:22:29;2.95;;;1.50;;
20294;SDS011;10306;52.128;5.208;2023-05-20T11:24:55;3.85;;;1.70;;
20294;SDS011;10306;52.128;5.208;2023-05-20T11:27:21;2.55;;;1.45;;
20294;SDS011;10306;52.128;5.208;2023-05-20T11:29:48;1.55;;;1.48;;
20294;SDS011;10306;52.128;5.208;2023-05-20T11:32:14;1.70;;;1.60;;
20294;SDS011;10306;52.128;5.208;2023-05-20T11:34:40;1.90;;;1.75;;
20294;SDS011;10306;52.128;5.208;2023-05-20T11:37:07;1.67;;;1.58;;
20294;SDS011;10306;52.128;5.208;2023-05-20T11:39:33;1.90;;;1.80;;
20294;SDS011;10306;52.128;5.208;2023-05-20T11:41:59;1.55;;;1.55;;
20294;SDS011;10306;52.128;5.208;2023-05-20T11:44:25;3.08;;;1.80;;
20294;SDS011;10306;52.128;5.208;2023-05-20T11:46:51;1.85;;;1.50;;
20294;SDS011;10306;52.128;5.208;2023-05-20T11:49:23;1.95;;;1.40;;
20294;SDS011;10306;52.128;5.208;2023-05-20T11:51:49;1.48;;;1.45;;
20294;SDS011;10306;52.128;5.208;2023-05-20T11:54:15;1.42;;;1.40;;
20294;SDS011;10306;52.128;5.208;2023-05-20T11:56:41;1.55;;;1.48;;
20294;SDS011;10306;52.128;5.208;2023-05-20T11:59:09;2.45;;;1.60;;
20294;SDS011;10306;52.128;5.208;2023-05-20T12:01:36;1.55;;;1.45;;
20294;SDS011;10306;52.128;5.208;2023-05-20T12:04:04;1.65;;;1.58;;
20294;SDS011;10306;52.128;5.208;2023-05-20T12:06:30;4.03;;;1.98;;
20294;SDS011;10306;52.128;5.208;2023-05-20T12:08:57;1.88;;;1.77;;
20294;SDS011;10306;52.128;5.208;2023-05-20T12:11:23;1.88;;;1.77;;
20294;SDS011;10306;52.128;5.208;2023-05-20T12:13:49;1.63;;;1.52;;
20294;SDS011;10306;52.128;5.208;2023-05-20T12:16:15;1.77;;;1.50;;
20294;SDS011;10306;52.128;5.208;2023-05-20T12:18:41;1.73;;;1.58;;
20294;SDS011;10306;52.128;5.208;2023-05-20T12:21:07;2.45;;;2.00;;
20294;SDS011;10306;52.128;5.208;2023-05-20T12:23:33;1.80;;;1.70;;
20294;SDS011;10306;52.128;5.208;2023-05-20T12:25:59;2.70;;;1.52;;
20294;SDS011;10306;52.128;5.208;2023-05-20T12:28:25;2.10;;;1.92;;
20294;SDS011;10306;52.128;5.208;2023-05-20T12:30:51;1.48;;;1.48;;
20294;SDS011;10306;52.128;5.208;2023-05-20T12:33:17;2.22;;;1.60;;
20294;SDS011;10306;52.128;5.208;2023-05-20T12:35:44;1.60;;;1.60;;
20294;SDS011;10306;52.128;5.208;2023-05-20T12:38:10;1.48;;;1.48;;
20294;SDS011;10306;52.128;5.208;2023-05-20T12:40:36;1.70;;;1.60;;
20294;SDS011;10306;52.128;5.208;2023-05-20T12:43:03;1.70;;;1.40;;
20294;SDS011;10306;52.128;5.208;2023-05-20T12:45:29;5.13;;;1.60;;
20294;SDS011;10306;52.128;5.208;2023-05-20T12:47:55;1.50;;;1.50;;
20294;SDS011;10306;52.128;5.208;2023-05-20T12:50:22;1.65;;;1.55;;
20294;SDS011;10306;52.128;5.208;2023-05-20T12:52:48;1.40;;;1.40;;
20294;SDS011;10306;52.128;5.208;2023-05-20T12:55:14;1.48;;;1.40;;
20294;SDS011;10306;52.128;5.208;2023-05-20T12:57:40;1.70;;;1.60;;
20294;SDS011;10306;52.128;5.208;2023-05-20T13:00:08;1.70;;;1.60;;
20294;SDS011;10306;52.128;5.208;2023-05-20T13:02:34;1.42;;;1.33;;
20294;SDS011;10306;52.128;5.208;2023-05-20T13:05:00;1.73;;;1.20;;
20294;SDS011;10306;52.128;5.208;2023-05-20T13:07:26;1.85;;;1.70;;
20294;SDS011;10306;52.128;5.208;2023-05-20T13:09:52;1.67;;;1.58;;
20294;SDS011;10306;52.128;5.208;2023-05-20T13:12:18;1.52;;;1.42;;
20294;SDS011;10306;52.128;5.208;2023-05-20T13:14:44;3.67;;;1.50;;
20294;SDS011;10306;52.128;5.208;2023-05-20T13:17:10;3.78;;;1.50;;
20294;SDS011;10306;52.128;5.208;2023-05-20T13:19:36;1.67;;;1.58;;
20294;SDS011;10306;52.128;5.208;2023-05-20T13:22:03;1.58;;;1.58;;
20294;SDS011;10306;52.128;5.208;2023-05-20T13:24:30;1.45;;;1.40;;
20294;SDS011;10306;52.128;5.208;2023-05-20T13:26:56;1.50;;;1.40;;
20294;SDS011;10306;52.128;5.208;2023-05-20T13:29:22;1.60;;;1.23;;
20294;SDS011;10306;52.128;5.208;2023-05-20T13:31:48;1.35;;;1.35;;
20294;SDS011;10306;52.128;5.208;2023-05-20T13:34:14;1.25;;;1.25;;
20294;SDS011;10306;52.128;5.208;2023-05-20T13:36:40;1.88;;;1.77;;
20294;SDS011;10306;52.128;5.208;2023-05-20T13:39:06;1.58;;;1.48;;
20294;SDS011;10306;52.128;5.208;2023-05-20T13:41:32;1.45;;;1.45;;
20294;SDS011;10306;52.128;5.208;2023-05-20T13:43:58;1.80;;;1.70;;
20294;SDS011;10306;52.128;5.208;2023-05-20T13:46:24;1.98;;;1.65;;
20294;SDS011;10306;52.128;5.208;2023-05-20T13:48:50;4.30;;;1.50;;
20294;SDS011;10306;52.128;5.208;2023-05-20T13:51:16;1.70;;;1.60;;
20294;SDS011;10306;52.128;5.208;2023-05-20T13:53:42;1.50;;;1.48;;
20294;SDS011;10306;52.128;5.208;2023-05-20T13:56:08;1.20;;;1.20;;
20294;SDS011;10306;52.128;5.208;2023-05-20T13:58:34;1.40;;;1.30;;
20294;SDS011;10306;52.128;5.208;2023-05-20T14:01:01;1.50;;;1.40;;
20294;SDS011;10306;52.128;5.208;2023-05-20T14:03:28;1.70;;;1.60;;
20294;SDS011;10306;52.128;5.208;2023-05-20T14:05:54;2.63;;;1.40;;
20294;SDS011;10306;52.128;5.208;2023-05-20T14:08:20;1.40;;;1.40;;
20294;SDS011;10306;52.128;5.208;2023-05-20T14:10:47;1.60;;;1.52;;
20294;SDS011;10306;52.128;5.208;2023-05-20T14:13:12;1.48;;;1.48;;
20294;SDS011;10306;52.128;5.208;2023-05-20T14:15:39;1.27;;;1.25;;
20294;SDS011;10306;52.128;5.208;2023-05-20T14:18:05;1.30;;;1.30;;
20294;SDS011;10306;52.128;5.208;2023-05-20T14:20:31;3.97;;;1.50;;
20294;SDS011;10306;52.128;5.208;2023-05-20T14:22:57;1.88;;;1.48;;
20294;SDS011;10306;52.128;5.208;2023-05-20T14:25:25;3.72;;;2.22;;
20294;SDS011;10306;52.128;5.208;2023-05-20T14:27:51;1.50;;;1.40;;
20294;SDS011;10306;52.128;5.208;2023-05-20T14:30:18;1.88;;;1.33;;
20294;SDS011;10306;52.128;5.208;2023-05-20T14:32:44;1.70;;;1.70;;
20294;SDS011;10306;52.128;5.208;2023-05-20T14:35:10;1.60;;;1.50;;
20294;SDS011;10306;52.128;5.208;2023-05-20T14:37:35;1.50;;;1.40;;
20294;SDS011;10306;52.128;5.208;2023-05-20T14:40:03;1.42;;;1.42;;
20294;SDS011;10306;52.128;5.208;2023-05-20T14:42:31;2.45;;;1.33;;
20294;SDS011;10306;52.128;5.208;2023-05-20T14:44:57;2.80;;;1.60;;
20294;SDS011;10306;52.128;5.208;2023-05-20T14:47:23;1.52;;;1.52;;
20294;SDS011;10306;52.128;5.208;2023-05-20T14:49:50;3.80;;;1.48;;
20294;SDS011;10306;52.128;5.208;2023-05-20T14:52:16;1.80;;;1.70;;
20294;SDS011;10306;52.128;5.208;2023-05-20T14:54:42;1.30;;;1.30;;